createdAt,value
2022-11-30T00:00:44.500Z,9.20
2022-11-30T00:03:14.939Z,8.15
2022-11-30T00:05:45.005Z,9.63
2022-11-30T00:08:15.428Z,9.43
2022-11-30T00:10:48.316Z,9.77
2022-11-30T00:13:18.425Z,8.98
2022-11-30T00:15:48.479Z,10.30
2022-11-30T00:18:18.591Z,7.25
2022-11-30T00:20:48.746Z,10.55
2022-11-30T00:23:18.951Z,10.10
2022-11-30T00:25:51.995Z,9.93
2022-11-30T00:28:22.096Z,11.50
2022-11-30T00:31:00.579Z,10.30
2022-11-30T00:33:30.837Z,9.02
2022-11-30T00:36:01.418Z,10.75
2022-11-30T00:38:32.132Z,9.32
2022-11-30T00:41:05.518Z,9.50
2022-11-30T00:43:35.815Z,9.73
2022-11-30T00:46:06.359Z,10.18
2022-11-30T00:48:36.758Z,10.27
2022-11-30T00:51:07.237Z,11.23
2022-11-30T00:53:37.433Z,9.13
2022-11-30T00:56:11.764Z,10.00
2022-11-30T00:58:44.862Z,8.90
2022-11-30T01:01:15.091Z,8.07
2022-11-30T01:03:45.898Z,6.65
2022-11-30T01:06:16.270Z,6.72
2022-11-30T01:08:48.172Z,6.32
2022-11-30T01:11:24.773Z,7.20
2022-11-30T01:13:55.521Z,7.15
2022-11-30T01:16:27.495Z,6.93
2022-11-30T01:18:58.195Z,7.65
2022-11-30T01:21:31.267Z,7.68
2022-11-30T01:24:01.422Z,8.90
2022-11-30T01:26:34.163Z,8.55
2022-11-30T01:29:04.200Z,10.05
2022-11-30T01:31:34.347Z,8.82
2022-11-30T01:34:04.762Z,8.73
2022-11-30T01:36:36.539Z,7.70
2022-11-30T01:39:12.769Z,8.68
2022-11-30T01:41:45.496Z,10.18
2022-11-30T01:44:51.244Z,8.25
2022-11-30T01:47:26.312Z,8.45
2022-11-30T01:50:02.125Z,7.82
2022-11-30T01:52:36.910Z,8.15
2022-11-30T01:55:17.051Z,8.93
2022-11-30T01:57:54.141Z,8.30
2022-11-30T02:00:27.923Z,8.02
2022-11-30T02:03:03.302Z,10.15
2022-11-30T02:05:34.256Z,12.60
2022-11-30T02:08:05.176Z,12.57
2022-11-30T02:10:38.683Z,13.15
2022-11-30T02:13:31.946Z,13.32
2022-11-30T02:16:15.516Z,10.85
2022-11-30T02:18:53.411Z,11.82
2022-11-30T02:21:28.962Z,12.40
2022-11-30T02:24:39.940Z,10.68
2022-11-30T02:27:29.119Z,10.00
2022-11-30T02:30:05.735Z,10.27
2022-11-30T02:32:42.249Z,13.05
2022-11-30T02:35:13.852Z,10.02
2022-11-30T02:37:44.789Z,11.63
2022-11-30T02:40:20.008Z,11.05
2022-11-30T02:42:51.434Z,11.43
2022-11-30T02:45:32.468Z,10.77
2022-11-30T02:48:09.207Z,9.98
2022-11-30T02:50:43.918Z,10.52
2022-11-30T02:53:14.125Z,9.60
2022-11-30T02:55:44.340Z,8.50
2022-11-30T02:58:15.622Z,9.50
2022-11-30T03:00:48.572Z,9.43
2022-11-30T03:03:18.620Z,9.57
2022-11-30T03:05:48.688Z,9.35
2022-11-30T03:08:18.796Z,8.88
2022-11-30T03:10:48.827Z,8.18
2022-11-30T03:13:19.028Z,8.45
2022-11-30T03:15:51.747Z,9.45
2022-11-30T03:18:21.932Z,7.78
2022-11-30T03:20:51.996Z,8.13
2022-11-30T03:23:22.079Z,8.80
2022-11-30T03:25:52.167Z,8.55
2022-11-30T03:28:22.249Z,7.93
2022-11-30T03:30:55.101Z,9.23
2022-11-30T03:33:25.302Z,8.65
2022-11-30T03:36:03.080Z,8.00
2022-11-30T03:38:33.825Z,8.40
2022-11-30T03:41:04.855Z,8.20
2022-11-30T03:43:35.728Z,8.32
2022-11-30T03:46:08.939Z,8.73
2022-11-30T03:48:41.107Z,7.30
2022-11-30T03:51:12.723Z,8.55
2022-11-30T03:53:43.625Z,9.18
2022-11-30T03:56:14.730Z,8.10
2022-11-30T03:58:45.158Z,8.52
2022-11-30T04:01:22.364Z,8.02
2022-11-30T04:03:53.291Z,8.52
2022-11-30T04:06:24.463Z,7.63
2022-11-30T04:08:54.952Z,7.13
2022-11-30T04:11:24.970Z,8.05
2022-11-30T04:13:54.967Z,8.85
2022-11-30T04:16:27.673Z,7.95
2022-11-30T04:18:57.763Z,8.30
2022-11-30T04:21:28.194Z,8.70
2022-11-30T04:23:58.284Z,7.32
2022-11-30T04:26:28.328Z,7.32
2022-11-30T04:29:01.156Z,7.47
2022-11-30T04:31:36.109Z,7.70
2022-11-30T04:34:06.248Z,6.80
2022-11-30T04:36:36.293Z,7.00
2022-11-30T04:39:09.180Z,7.80
2022-11-30T04:41:39.221Z,6.88
2022-11-30T04:44:09.335Z,6.30
2022-11-30T04:46:42.357Z,7.55
2022-11-30T04:49:12.495Z,7.32
2022-11-30T04:51:42.599Z,8.10
2022-11-30T04:54:12.787Z,7.63
2022-11-30T04:56:42.931Z,8.07
2022-11-30T04:59:13.047Z,7.45
2022-11-30T05:01:48.062Z,8.48
2022-11-30T05:04:18.357Z,8.38
2022-11-30T05:06:48.456Z,7.85
2022-11-30T05:09:19.119Z,8.55
2022-11-30T05:11:49.594Z,8.73
2022-11-30T05:14:19.937Z,8.93
2022-11-30T05:16:53.066Z,9.13
2022-11-30T05:19:25.687Z,8.73
2022-11-30T05:21:55.757Z,8.75
2022-11-30T05:24:25.798Z,8.75
2022-11-30T05:26:55.810Z,9.10
2022-11-30T05:29:25.947Z,8.30
2022-11-30T05:31:58.612Z,7.15
2022-11-30T05:34:28.751Z,7.43
2022-11-30T05:37:00.504Z,8.20
2022-11-30T05:39:30.702Z,9.27
2022-11-30T05:42:00.721Z,8.45
2022-11-30T05:44:30.773Z,8.90
2022-11-30T05:47:04.215Z,8.82
2022-11-30T05:49:34.599Z,8.70
2022-11-30T05:52:04.692Z,8.45
2022-11-30T05:54:34.719Z,7.18
2022-11-30T05:57:05.596Z,6.97
2022-11-30T05:59:35.887Z,7.32
2022-11-30T06:02:08.712Z,7.32
2022-11-30T06:04:38.852Z,9.02
2022-11-30T06:07:11.973Z,8.55
2022-11-30T06:09:42.133Z,7.77
2022-11-30T06:12:12.216Z,7.85
2022-11-30T06:14:42.283Z,8.82
2022-11-30T06:17:15.286Z,9.00
2022-11-30T06:19:45.656Z,7.43
2022-11-30T06:22:15.780Z,8.60
2022-11-30T06:24:46.145Z,8.45
2022-11-30T06:27:16.364Z,8.70
2022-11-30T06:29:46.420Z,8.05
2022-11-30T06:32:19.235Z,8.38
2022-11-30T06:34:49.516Z,8.40
2022-11-30T06:37:19.705Z,7.38
2022-11-30T06:40:05.873Z,7.63
2022-11-30T06:42:37.705Z,8.23
2022-11-30T06:45:09.590Z,8.90
2022-11-30T06:47:42.358Z,8.18
2022-11-30T06:50:12.733Z,8.77
2022-11-30T06:52:42.783Z,6.18
2022-11-30T06:55:13.005Z,6.13
2022-11-30T06:57:43.090Z,5.68
2022-11-30T07:00:14.913Z,5.90
2022-11-30T07:02:50.288Z,5.78
2022-11-30T07:05:20.508Z,5.32
2022-11-30T07:07:51.209Z,5.85
2022-11-30T07:10:22.984Z,5.35
2022-11-30T07:12:53.401Z,5.20
2022-11-30T07:15:23.833Z,5.63
2022-11-30T07:17:56.420Z,6.18
2022-11-30T07:20:26.450Z,6.13
2022-11-30T07:22:58.361Z,6.40
2022-11-30T07:25:40.839Z,6.10
2022-11-30T07:28:11.060Z,6.13
2022-11-30T07:30:41.211Z,35.50
2022-11-30T07:33:14.120Z,32.40
2022-11-30T07:35:44.238Z,31.73
2022-11-30T07:38:14.388Z,11.23
2022-11-30T07:40:44.519Z,10.23
2022-11-30T07:43:14.560Z,7.10
2022-11-30T07:45:44.932Z,8.32
2022-11-30T07:48:17.644Z,7.53
2022-11-30T07:50:47.654Z,6.95
2022-11-30T07:53:17.941Z,7.20
2022-11-30T07:55:51.536Z,7.93
2022-11-30T07:58:25.846Z,8.55
2022-11-30T08:00:58.071Z,6.97
2022-11-30T08:03:36.468Z,7.13
2022-11-30T08:06:08.694Z,6.63
2022-11-30T08:08:40.243Z,6.97
2022-11-30T08:11:11.715Z,14.23
2022-11-30T08:13:46.581Z,15.38
2022-11-30T08:16:18.939Z,13.55
2022-11-30T08:18:52.365Z,10.40
2022-11-30T08:21:23.942Z,8.65
2022-11-30T08:23:56.254Z,8.65
2022-11-30T08:26:28.208Z,9.02
2022-11-30T08:28:59.861Z,7.78
2022-11-30T08:31:32.070Z,8.38
2022-11-30T08:34:07.709Z,8.27
2022-11-30T08:36:38.241Z,10.40
2022-11-30T08:39:10.026Z,9.52
2022-11-30T08:41:40.132Z,9.43
2022-11-30T08:44:10.371Z,7.15
2022-11-30T08:46:51.430Z,6.47
2022-11-30T08:49:25.664Z,6.20
2022-11-30T08:54:48.941Z,5.25
2022-11-30T08:57:20.827Z,5.65
2022-11-30T08:59:51.404Z,5.18
2022-11-30T09:02:25.197Z,5.60
2022-11-30T09:04:57.959Z,5.65
2022-11-30T09:07:28.051Z,5.28
2022-11-30T09:09:58.117Z,5.20
2022-11-30T09:12:28.164Z,6.60
2022-11-30T09:14:58.810Z,6.65
2022-11-30T09:17:29.503Z,5.70
2022-11-30T09:20:02.568Z,6.40
2022-11-30T09:22:32.842Z,8.45
2022-11-30T09:25:02.961Z,9.38
2022-11-30T09:27:35.322Z,6.57
2022-11-30T09:30:06.141Z,6.07
2022-11-30T09:32:36.435Z,5.75
2022-11-30T09:35:12.721Z,6.15
2022-11-30T09:37:43.386Z,5.97
2022-11-30T09:40:16.532Z,5.22
2022-11-30T09:43:01.038Z,5.07
2022-11-30T09:45:34.353Z,3.45
2022-11-30T09:48:25.236Z,4.38
2022-11-30T09:51:01.590Z,4.30
2022-11-30T09:53:41.413Z,5.85
2022-11-30T09:56:24.534Z,5.13
2022-11-30T09:59:02.269Z,2.60
2022-11-30T10:01:37.460Z,4.05
2022-11-30T10:04:09.104Z,4.28
2022-11-30T10:06:53.636Z,2.97
2022-11-30T10:09:32.353Z,1.42
2022-11-30T10:12:08.907Z,1.50
2022-11-30T10:14:59.937Z,1.70
2022-11-30T10:17:40.953Z,1.50
2022-11-30T10:20:26.936Z,1.35
2022-11-30T10:23:17.129Z,1.50
2022-11-30T10:25:57.723Z,1.30
2022-11-30T10:28:48.753Z,1.50
2022-11-30T10:31:19.850Z,1.10
2022-11-30T10:33:52.668Z,1.50
2022-11-30T10:36:30.429Z,1.40
2022-11-30T10:39:11.792Z,1.20
2022-11-30T10:41:49.316Z,0.95
2022-11-30T10:44:23.490Z,1.20
2022-11-30T10:47:00.985Z,1.35
2022-11-30T10:49:33.470Z,1.20
2022-11-30T10:52:08.547Z,1.65
2022-11-30T10:54:41.468Z,1.13
2022-11-30T10:57:14.624Z,0.82
2022-11-30T10:59:48.045Z,1.00
2022-11-30T11:02:38.236Z,1.00
2022-11-30T11:05:27.110Z,1.40
2022-11-30T11:08:06.269Z,1.25
2022-11-30T11:10:46.929Z,0.98
2022-11-30T11:13:20.251Z,1.08
2022-11-30T11:16:00.765Z,1.10
2022-11-30T11:18:32.757Z,1.00
2022-11-30T11:21:06.724Z,1.55
2022-11-30T11:23:40.377Z,1.15
2022-11-30T11:26:21.555Z,1.05
2022-11-30T11:28:53.528Z,1.40
2022-11-30T11:31:37.108Z,1.42
2022-11-30T11:34:10.123Z,1.40
2022-11-30T11:36:43.007Z,1.30
2022-11-30T11:39:28.583Z,1.50
2022-11-30T11:42:01.463Z,1.63
2022-11-30T11:44:31.950Z,1.50
2022-11-30T11:47:04.099Z,1.10
2022-11-30T11:49:38.087Z,1.30
2022-11-30T11:54:45.052Z,1.50
2022-11-30T11:57:22.456Z,1.00
2022-11-30T11:59:59.404Z,1.30
2022-11-30T12:02:37.604Z,1.20
2022-11-30T12:05:12.796Z,1.05
2022-11-30T12:07:48.697Z,0.95
2022-11-30T12:10:51.356Z,0.60
2022-11-30T12:13:23.089Z,1.05
2022-11-30T12:16:07.169Z,1.17
2022-11-30T12:18:48.059Z,1.17
2022-11-30T12:21:24.346Z,1.88
2022-11-30T12:24:27.146Z,1.10
2022-11-30T12:27:02.278Z,1.15
2022-11-30T12:29:46.893Z,1.30
2022-11-30T12:32:34.697Z,1.10
2022-11-30T12:35:22.288Z,1.30
2022-11-30T12:38:05.880Z,0.90
2022-11-30T12:40:43.803Z,0.98
2022-11-30T12:43:26.893Z,1.40
2022-11-30T12:46:11.628Z,1.83
2022-11-30T12:48:55.538Z,1.23
2022-11-30T12:51:32.840Z,1.35
2022-11-30T12:54:14.796Z,1.40
2022-11-30T12:56:50.241Z,1.10
2022-11-30T12:59:36.241Z,1.15
2022-11-30T13:02:39.443Z,1.33
2022-11-30T13:05:13.255Z,1.38
2022-11-30T13:07:48.949Z,1.65
2022-11-30T13:10:29.515Z,1.20
2022-11-30T13:13:05.166Z,1.20
2022-11-30T13:15:37.967Z,1.45
2022-11-30T13:18:17.303Z,1.50
2022-11-30T13:21:01.820Z,1.45
2022-11-30T13:23:39.936Z,1.08
2022-11-30T13:26:22.157Z,1.13
2022-11-30T13:29:08.314Z,1.00
2022-11-30T13:31:44.324Z,1.45
2022-11-30T13:34:29.669Z,1.25
2022-11-30T13:37:09.624Z,1.08
2022-11-30T13:39:49.720Z,1.17
2022-11-30T13:42:46.141Z,1.58
2022-11-30T13:45:36.530Z,1.50
2022-11-30T13:48:32.855Z,1.73
2022-11-30T13:51:06.780Z,1.35
2022-11-30T13:53:40.114Z,1.75
2022-11-30T13:56:47.280Z,1.30
2022-11-30T13:59:40.986Z,1.40
2022-11-30T14:02:44.722Z,1.67
2022-11-30T14:05:26.505Z,2.13
2022-11-30T14:08:34.079Z,1.58
2022-11-30T14:11:36.858Z,1.80
2022-11-30T14:14:40.651Z,1.52
2022-11-30T14:17:30.015Z,1.60
2022-11-30T14:20:03.882Z,1.88
2022-11-30T14:22:35.336Z,1.63
2022-11-30T14:25:16.014Z,2.00
2022-11-30T14:27:47.376Z,2.40
2022-11-30T14:30:23.810Z,1.65
2022-11-30T14:33:02.959Z,2.65
2022-11-30T14:35:34.960Z,3.95
2022-11-30T14:38:17.834Z,3.67
2022-11-30T14:40:59.245Z,3.10
2022-11-30T14:43:30.705Z,3.17
2022-11-30T14:46:05.714Z,3.53
2022-11-30T14:48:37.184Z,4.07
2022-11-30T14:51:07.605Z,3.78
2022-11-30T14:53:45.766Z,3.00
2022-11-30T14:56:26.858Z,3.95
2022-11-30T14:59:09.264Z,3.60
2022-11-30T15:01:43.854Z,3.72
2022-11-30T15:04:20.742Z,3.65
2022-11-30T15:06:51.053Z,4.30
2022-11-30T15:09:23.652Z,5.95
2022-11-30T15:11:56.828Z,5.75
2022-11-30T15:14:27.192Z,6.75
2022-11-30T15:16:58.980Z,4.07
2022-11-30T15:19:31.262Z,3.92
2022-11-30T15:22:04.611Z,4.60
2022-11-30T15:24:37.475Z,4.67
2022-11-30T15:27:16.889Z,5.28
2022-11-30T15:29:49.783Z,4.22
2022-11-30T15:32:25.611Z,4.57
2022-11-30T15:35:02.211Z,4.65
2022-11-30T15:37:35.016Z,4.47
2022-11-30T15:40:08.461Z,4.50
2022-11-30T15:42:44.319Z,4.80
2022-11-30T15:45:41.644Z,4.60
2022-11-30T15:48:31.320Z,8.90
2022-11-30T15:51:07.549Z,10.35
2022-11-30T15:53:50.607Z,10.15
2022-11-30T15:56:27.463Z,12.75
2022-11-30T15:59:11.059Z,11.60
2022-11-30T16:02:02.362Z,10.02
2022-11-30T16:05:15.737Z,10.80
2022-11-30T16:07:52.844Z,10.05
2022-11-30T16:10:28.407Z,10.45
2022-11-30T16:12:59.062Z,9.85
2022-11-30T16:15:35.156Z,10.60
2022-11-30T16:18:16.388Z,29.85
2022-11-30T16:20:48.105Z,25.10
2022-11-30T16:23:19.452Z,20.73
2022-11-30T16:25:51.718Z,18.30
2022-11-30T16:28:25.684Z,14.65
2022-11-30T16:31:03.660Z,14.18
2022-11-30T16:33:33.993Z,11.80
2022-11-30T16:36:06.702Z,13.68
2022-11-30T16:38:37.688Z,10.73
2022-11-30T16:41:19.638Z,8.45
2022-11-30T16:43:51.896Z,7.82
2022-11-30T16:46:32.182Z,7.68
2022-11-30T16:49:02.408Z,7.75
2022-11-30T16:51:34.869Z,7.07
2022-11-30T16:54:09.963Z,7.93
2022-11-30T16:56:48.040Z,7.03
2022-11-30T16:59:18.231Z,6.45
2022-11-30T17:01:53.486Z,7.00
2022-11-30T17:04:29.726Z,6.93
2022-11-30T17:07:03.196Z,6.50
2022-11-30T17:09:34.778Z,7.40
2022-11-30T17:12:05.328Z,7.30
2022-11-30T17:14:35.575Z,7.55
2022-11-30T17:17:08.385Z,7.13
2022-11-30T17:19:40.745Z,9.18
2022-11-30T17:22:10.993Z,7.88
2022-11-30T17:24:47.056Z,7.22
2022-11-30T17:27:17.784Z,6.95
2022-11-30T17:29:47.849Z,5.75
2022-11-30T17:32:20.717Z,6.95
2022-11-30T17:34:50.889Z,6.88
2022-11-30T17:37:21.076Z,6.60
2022-11-30T17:39:53.490Z,6.65
2022-11-30T17:42:24.289Z,7.45
2022-11-30T17:44:54.367Z,7.95
2022-11-30T17:47:29.146Z,8.18
2022-11-30T17:49:59.515Z,7.57
2022-11-30T17:52:30.029Z,7.55
2022-11-30T17:55:01.177Z,7.97
2022-11-30T17:57:33.172Z,6.80
2022-11-30T18:00:03.710Z,6.32
2022-11-30T18:02:39.237Z,7.05
2022-11-30T18:05:12.325Z,7.63
2022-11-30T18:07:42.767Z,7.43
2022-11-30T18:10:13.948Z,7.90
2022-11-30T18:12:44.831Z,7.78
2022-11-30T18:18:00.934Z,9.65
2022-11-30T18:20:34.534Z,14.13
2022-11-30T18:23:04.648Z,18.00
2022-11-30T18:25:36.320Z,13.18
2022-11-30T18:28:06.652Z,12.10
2022-11-30T18:30:36.746Z,9.85
2022-11-30T18:33:09.487Z,10.65
2022-11-30T18:35:39.582Z,11.57
2022-11-30T18:38:11.969Z,7.05
2022-11-30T18:40:42.495Z,6.15
2022-11-30T18:43:12.784Z,6.07
2022-11-30T18:45:42.935Z,6.20
2022-11-30T18:48:15.816Z,6.72
2022-11-30T18:50:46.294Z,5.25
2022-11-30T18:53:18.342Z,5.40
2022-11-30T18:55:48.755Z,4.80
2022-11-30T18:58:22.615Z,4.35
2022-11-30T19:00:52.877Z,4.93
2022-11-30T19:03:28.663Z,4.18
2022-11-30T19:05:58.852Z,5.57
2022-11-30T19:08:29.034Z,17.20
2022-11-30T19:11:07.428Z,6.75
2022-11-30T19:13:50.065Z,8.15
2022-11-30T19:16:20.263Z,10.02
2022-11-30T19:18:55.462Z,11.95
2022-11-30T19:21:33.628Z,15.07
2022-11-30T19:24:04.331Z,13.27
2022-11-30T19:26:34.665Z,14.32
2022-11-30T19:29:07.180Z,14.55
2022-11-30T19:31:40.013Z,14.23
2022-11-30T19:34:15.564Z,14.77
2022-11-30T19:36:49.295Z,15.50
2022-11-30T19:41:49.879Z,11.15
2022-11-30T19:44:23.080Z,11.98
2022-11-30T19:46:58.101Z,11.30
2022-11-30T19:49:30.793Z,10.90
2022-11-30T19:52:01.033Z,11.48
2022-11-30T19:54:32.179Z,12.07
2022-11-30T19:57:02.259Z,15.52
2022-11-30T19:59:32.449Z,17.45
2022-11-30T20:02:05.777Z,18.25
2022-11-30T20:04:40.982Z,18.63
2022-11-30T20:07:16.818Z,19.67
2022-11-30T20:09:47.104Z,20.67
2022-11-30T20:12:17.628Z,23.58
2022-11-30T20:14:48.434Z,24.33
2022-11-30T20:17:18.804Z,24.15
2022-11-30T20:19:55.457Z,21.95
2022-11-30T20:22:28.549Z,23.33
2022-11-30T20:25:01.499Z,21.95
2022-11-30T20:27:32.025Z,21.77
2022-11-30T20:30:02.387Z,21.02
2022-11-30T20:32:35.781Z,21.88
2022-11-30T20:35:09.800Z,20.73
2022-11-30T20:40:11.936Z,20.33
2022-11-30T20:42:48.825Z,19.42
2022-11-30T20:45:21.889Z,18.83
2022-11-30T20:47:52.029Z,19.00
2022-11-30T20:50:26.838Z,17.98
2022-11-30T20:52:57.127Z,15.65
2022-11-30T20:55:27.241Z,11.95
2022-11-30T20:58:06.501Z,13.07
2022-11-30T21:00:36.631Z,13.82
2022-11-30T21:03:07.123Z,9.60
2022-11-30T21:05:41.775Z,9.00
2022-11-30T21:08:15.630Z,9.68
2022-11-30T21:10:47.023Z,9.25
2022-11-30T21:13:23.468Z,10.38
2022-11-30T21:15:55.857Z,10.48
2022-11-30T21:18:26.505Z,10.00
2022-11-30T21:21:08.392Z,9.93
2022-11-30T21:23:40.203Z,9.98
2022-11-30T21:26:16.605Z,9.75
2022-11-30T21:28:52.955Z,9.77
2022-11-30T21:31:23.911Z,8.88
2022-11-30T21:33:54.641Z,8.48
2022-11-30T21:36:27.551Z,10.02
2022-11-30T21:39:04.976Z,7.37
2022-11-30T21:41:39.733Z,7.30
2022-11-30T21:44:12.727Z,7.20
2022-11-30T21:46:45.772Z,6.65
2022-11-30T21:49:21.197Z,6.68
2022-11-30T21:51:53.932Z,5.80
2022-11-30T21:54:24.184Z,7.82
2022-11-30T21:56:55.056Z,6.93
2022-11-30T21:59:25.268Z,7.13
2022-11-30T22:01:55.623Z,6.05
2022-11-30T22:04:27.430Z,6.93
2022-11-30T22:07:01.180Z,7.07
2022-11-30T22:12:01.919Z,6.22
2022-11-30T22:14:32.058Z,5.85
2022-11-30T22:17:02.206Z,5.47
2022-11-30T22:19:36.807Z,5.88
2022-11-30T22:22:09.652Z,6.40
2022-11-30T22:24:42.741Z,6.10
2022-11-30T22:27:14.948Z,5.50
2022-11-30T22:29:45.669Z,5.35
2022-11-30T22:32:23.047Z,5.25
2022-11-30T22:34:53.451Z,6.10
2022-11-30T22:37:26.188Z,5.45
2022-11-30T22:39:59.331Z,5.47
2022-11-30T22:42:32.059Z,5.80
2022-11-30T22:45:04.348Z,5.20
2022-11-30T22:47:37.668Z,4.65
2022-11-30T22:50:11.547Z,5.05
2022-11-30T22:53:02.338Z,5.45
2022-11-30T22:55:37.599Z,6.50
2022-11-30T22:58:08.253Z,5.95
2022-11-30T23:00:38.408Z,6.43
2022-11-30T23:03:09.891Z,5.90
2022-11-30T23:05:41.368Z,7.95
2022-11-30T23:08:14.714Z,8.68
2022-11-30T23:10:46.160Z,9.45
2022-11-30T23:13:16.991Z,8.95
2022-11-30T23:15:47.463Z,9.93
2022-11-30T23:18:20.715Z,7.68
2022-11-30T23:20:53.906Z,6.93
2022-11-30T23:23:27.310Z,7.68
2022-11-30T23:25:57.387Z,7.63
2022-11-30T23:28:28.648Z,7.38
2022-11-30T23:31:04.783Z,6.88
2022-11-30T23:33:34.969Z,7.22
2022-11-30T23:36:05.132Z,8.93
2022-11-30T23:38:38.662Z,7.63
2022-11-30T23:41:10.540Z,7.38
2022-11-30T23:43:41.463Z,7.38
2022-11-30T23:46:21.888Z,7.22
2022-11-30T23:48:59.424Z,8.13
2022-11-30T23:51:29.942Z,7.53
2022-11-30T23:54:02.859Z,6.43
2022-11-30T23:56:35.444Z,6.78
2022-11-30T23:59:07.597Z,6.45
